Palflot-5 — UBHC — position and weather

sailwx.info

Track history (hours):
 
Tides and Currents Weather Stations Pressure Air Temp Water Temp Dewpoint Dewpoint Depression Visibility Wind Speed Wind Dir Waves Ship Positions

Palflot-5

Last reported at 2015-Jun-11 11:09 UTC. Time now 2015-Jul-01 04:52 UTC.
Position N 44°44' E 035°17'.
Warning: this ship's position is 19 days out of date.

Length 122 m; draft 2.6 m.

Type: Tanker. MMSI: 273443040.

Date/timePositionNaut miles runAvg speedWind from/ knotsBaromVisibWave heightAir tempDewpointWater temp
2015-Jun-11 11:09N 44°44' E 035°17'4 7.0
2015-Jun-11 10:34N 44°42' E 035°12'7 6.9
2015-Jun-11 09:31N 44°39' E 035°03'7 7.0
2015-Jun-11 08:34N 44°36' E 034°54'7 6.9
2015-Jun-11 07:33N 44°33' E 034°46'7 7.1
2015-Jun-11 06:33N 44°30' E 034°37'7 7.1
2015-Jun-11 05:33N 44°27' E 034°28'7 7.3
2015-Jun-11 04:34N 44°23' E 034°19'142 5.8
2015-Jun-10 04:08N 45°58' E 031°49'4 6.7
2015-Jun-10 03:33N 45°60' E 031°44'  
Track history (hours):
 
Tides and Currents Weather Stations Pressure Air Temp Water Temp Dewpoint Dewpoint Depression Visibility Wind Speed Wind Dir Waves Ship Positions

Palflot-5

Last reported at 2015-Jun-11 11:09 UTC. Time now 2015-Jul-01 04:52 UTC.
Position N 44°44' E 035°17'.
Warning: this ship's position is 19 days out of date.

Length 122 m; draft 2.6 m.

Type: Tanker. MMSI: 273443040.

Date/timePositionNaut miles runAvg speedWind from/ knotsBaromVisibWave heightAir tempDewpointWater temp
2015-Jun-11 11:09N 44°44' E 035°17'4 7.0
2015-Jun-11 10:34N 44°42' E 035°12'7 6.9
2015-Jun-11 09:31N 44°39' E 035°03'7 7.0
2015-Jun-11 08:34N 44°36' E 034°54'7 6.9
2015-Jun-11 07:33N 44°33' E 034°46'7 7.1
2015-Jun-11 06:33N 44°30' E 034°37'7 7.1
2015-Jun-11 05:33N 44°27' E 034°28'7 7.3
2015-Jun-11 04:34N 44°23' E 034°19'142 5.8
2015-Jun-10 04:08N 45°58' E 031°49'4 6.7
2015-Jun-10 03:33N 45°60' E 031°44'  

Dump ship's entire track history